Time;durP1;ratioP1;P1;durP2;ratioP2;P2;SDS_P1;SDS_P2;PMS_P1;PMS_P2;Temp;Humidity;BMP_temperature;BMP_pressure;BME280_temperature;BME280_humidity;BME280_pressure;Samples;Min_cycle;Max_cycle;Signal;HPM_P1;HPM_P2
2024/01/08 00:00:28;;;;;;;5.38;3.33;;;;;;;-146.27;75.11;46145.59;5068412;28;20510;-72
2024/01/08 00:02:54;;;;;;;4.90;2.60;;;;;;;-146.27;75.15;46169.47;5066951;28;20039;-72
2024/01/08 00:05:19;;;;;;;7.20;2.50;;;;;;;-146.27;74.52;46173.44;5069943;28;20032;-72
2024/01/08 00:07:45;;;;;;;5.30;2.70;;;;;;;-146.27;75.04;46185.41;5068819;28;20020;-73
2024/01/08 00:10:10;;;;;;;5.03;3.45;;;;;;;-146.27;74.43;46183.41;5063666;28;20525;-72
2024/01/08 00:12:35;;;;;;;4.50;3.10;;;;;;;-146.27;75.32;46197.34;5070161;28;20028;-72
2024/01/08 00:15:01;;;;;;;3.63;2.45;;;;;;;-146.27;74.55;46165.50;5066842;28;20094;-72
2024/01/08 00:17:26;;;;;;;6.22;2.63;;;;;;;-146.27;74.05;46187.38;5068052;28;20059;-72
2024/01/08 00:19:51;;;;;;;8.57;2.92;;;;;;;-146.27;73.54;46209.28;5065728;28;20159;-73
2024/01/08 00:22:17;;;;;;;5.70;2.88;;;;;;;-146.27;73.83;46197.34;5069204;28;20024;-72
2024/01/08 00:24:42;;;;;;;4.63;2.90;;;;;;;-146.27;73.37;46233.16;5069233;28;20488;-73
2024/01/08 00:27:07;;;;;;;4.53;3.08;;;;;;;-146.27;73.24;46255.06;5069742;28;20032;-72
2024/01/08 00:29:33;;;;;;;5.50;2.92;;;;;;;-146.27;72.79;46245.13;5069937;28;20078;-72
2024/01/08 00:31:58;;;;;;;8.13;2.97;;;;;;;-146.27;72.65;46280.94;5068333;28;20020;-73
2024/01/08 00:34:27;;;;;;;4.05;2.80;;;;;;;-146.27;72.71;46269.00;5067643;28;20039;-72
2024/01/08 00:36:52;;;;;;;6.72;2.80;;;;;;;-146.27;72.16;46278.97;5067666;28;20024;-73
2024/01/08 00:39:18;;;;;;;4.18;2.67;;;;;;;-146.27;72.24;46308.81;5065720;28;20036;-71
2024/01/08 00:41:43;;;;;;;4.22;2.58;;;;;;;-146.27;72.68;46300.84;5063882;28;20091;-72
2024/01/08 00:44:09;;;;;;;5.53;3.30;;;;;;;-146.27;72.59;46296.88;5068092;28;20139;-72
2024/01/08 00:46:34;;;;;;;3.70;2.72;;;;;;;-146.27;72.71;46304.84;5067317;28;20124;-72
2024/01/08 00:48:59;;;;;;;4.75;2.72;;;;;;;-146.27;72.00;46302.84;5068212;28;20056;-73
2024/01/08 00:51:25;;;;;;;5.75;2.80;;;;;;;-146.27;72.19;46302.84;5072376;28;20054;-72
2024/01/08 00:53:52;;;;;;;8.30;2.72;;;;;;;-146.27;71.81;46324.75;5069422;28;20024;-73
2024/01/08 00:56:18;;;;;;;3.83;2.83;;;;;;;-146.27;71.56;46356.59;5069736;28;20024;-72
2024/01/08 00:58:44;;;;;;;3.85;2.55;;;;;;;-146.27;71.53;46354.59;5069352;28;20043;-72
2024/01/08 01:01:11;;;;;;;3.65;2.35;;;;;;;-146.27;71.32;46376.50;5063316;28;20036;-71
2024/01/08 01:03:37;;;;;;;4.72;2.70;;;;;;;-146.27;71.73;46368.53;5066775;28;20025;-72
2024/01/08 01:06:02;;;;;;;5.93;3.20;;;;;;;-146.27;71.43;46372.53;5059631;28;20545;-71
2024/01/08 01:08:28;;;;;;;10.57;3.20;;;;;;;-146.27;70.53;46384.47;5068981;28;20028;-72
2024/01/08 01:10:53;;;;;;;5.80;2.95;;;;;;;-146.27;70.18;46416.31;5069117;28;20114;-72
2024/01/08 01:13:18;;;;;;;6.97;2.95;;;;;;;-146.27;70.57;46380.47;5058707;28;20123;-72
2024/01/08 01:15:44;;;;;;;7.30;3.00;;;;;;;-146.27;69.85;46444.19;5066490;28;20086;-73
2024/01/08 01:18:09;;;;;;;7.63;2.60;;;;;;;-146.27;70.18;46432.25;5067989;28;20043;-72
2024/01/08 01:20:35;;;;;;;4.55;2.22;;;;;;;-146.27;69.96;46384.47;5066926;28;20039;-72
2024/01/08 01:23:00;;;;;;;5.55;2.83;;;;;;;-146.27;69.79;46462.09;5067645;28;20029;-72
2024/01/08 01:25:25;;;;;;;4.18;2.63;;;;;;;-146.27;69.63;46448.16;5066177;28;20029;-72
2024/01/08 01:27:51;;;;;;;7.85;3.20;;;;;;;-146.27;69.96;46470.06;5067046;28;20028;-72
2024/01/08 01:30:16;;;;;;;3.38;2.50;;;;;;;-146.27;70.01;46442.19;5066920;28;20028;-72
2024/01/08 01:32:41;;;;;;;4.50;3.00;;;;;;;-146.27;69.29;46422.28;5066974;28;20020;-71
2024/01/08 01:35:07;;;;;;;9.18;3.15;;;;;;;-146.27;69.04;46460.09;5069368;28;20111;-72
2024/01/08 01:37:32;;;;;;;5.88;2.85;;;;;;;-146.27;68.96;46472.06;5068168;28;20025;-73
2024/01/08 01:39:58;;;;;;;4.55;2.55;;;;;;;-146.27;68.83;46470.06;5062537;28;20028;-73
2024/01/08 01:42:23;;;;;;;4.38;3.08;;;;;;;-146.27;68.60;46462.09;5067626;28;20024;-72
2024/01/08 01:44:48;;;;;;;7.63;3.30;;;;;;;-146.27;67.88;46491.97;5069645;28;20031;-72
2024/01/08 01:47:15;;;;;;;5.93;3.05;;;;;;;-146.27;69.08;46507.88;5067226;28;20052;-72
2024/01/08 01:49:40;;;;;;;6.20;2.80;;;;;;;-146.27;68.11;46509.88;5067898;28;20028;-72
2024/01/08 01:52:08;;;;;;;5.05;3.15;;;;;;;-146.27;67.59;46535.75;5067797;28;20154;-72
2024/01/08 01:54:34;;;;;;;5.15;3.20;;;;;;;-146.27;66.89;46571.59;5067201;28;20021;-72
2024/01/08 01:57:01;;;;;;;4.07;2.80;;;;;;;-146.27;67.15;46543.72;5067666;28;20039;-72
2024/01/08 01:59:29;;;;;;;4.85;3.05;;;;;;;-146.27;67.11;46547.72;5070597;28;20032;-72
2024/01/08 02:01:56;;;;;;;5.68;2.95;;;;;;;-146.27;66.31;46571.59;5063170;28;20069;-72
2024/01/08 02:04:25;;;;;;;4.97;2.90;;;;;;;-146.27;66.26;46563.63;5053514;28;20031;-72
2024/01/08 02:06:51;;;;;;;8.18;3.13;;;;;;;-146.27;67.70;46575.56;5056530;28;20029;-72
2024/01/08 02:09:17;;;;;;;4.45;3.13;;;;;;;-146.27;66.29;46571.59;5059860;28;20028;-72
2024/01/08 02:11:43;;;;;;;5.75;2.97;;;;;;;-146.27;66.59;46579.56;5072262;28;20050;-72
2024/01/08 02:14:10;;;;;;;5.70;3.08;;;;;;;-146.27;66.47;46583.53;5066359;28;20103;-72
2024/01/08 02:16:35;;;;;;;5.97;2.85;;;;;;;-146.27;66.04;46583.53;5065609;28;20028;-71
2024/01/08 02:19:01;;;;;;;5.30;3.42;;;;;;;-146.27;66.77;46579.56;5067434;28;20094;-72
2024/01/08 02:21:27;;;;;;;6.68;3.22;;;;;;;-146.27;66.86;46589.50;5053153;28;20672;-73
2024/01/08 02:23:53;;;;;;;5.40;2.90;;;;;;;-146.27;67.83;46573.59;5056618;28;20032;-72
2024/01/08 02:26:21;;;;;;;6.88;3.72;;;;;;;-146.27;67.82;46599.47;5068676;28;20032;-72
2024/01/08 02:28:46;;;;;;;7.70;3.92;;;;;;;-146.27;67.53;46603.44;5077551;28;20044;-72
2024/01/08 02:31:11;;;;;;;6.85;3.03;;;;;;;-146.27;66.28;46581.56;5059942;28;20549;-72
2024/01/08 02:33:37;;;;;;;5.28;3.60;;;;;;;-146.27;66.73;46627.34;5052388;28;20017;-72
2024/01/08 02:36:02;;;;;;;5.90;3.17;;;;;;;-146.27;66.28;46655.22;5067725;28;20108;-72
2024/01/08 02:38:28;;;;;;;5.82;3.50;;;;;;;-146.27;65.67;46635.31;5069653;28;20388;-73
2024/01/08 02:40:53;;;;;;;5.53;3.10;;;;;;;-146.27;66.31;46641.28;5069528;28;20032;-72
2024/01/08 02:43:18;;;;;;;5.82;3.60;;;;;;;-146.27;66.04;46645.25;5067480;28;20036;-72
2024/01/08 02:45:44;;;;;;;4.78;3.05;;;;;;;-146.27;66.11;46643.25;5072052;28;20040;-72
2024/01/08 02:48:09;;;;;;;5.75;3.60;;;;;;;-146.27;66.30;46637.28;5071689;28;20020;-73
2024/01/08 02:50:35;;;;;;;5.97;3.35;;;;;;;-146.27;66.27;46655.22;5072294;28;20029;-73
2024/01/08 02:53:00;;;;;;;4.95;3.28;;;;;;;-146.27;65.35;46613.41;5070985;28;20024;-71
2024/01/08 02:55:25;;;;;;;5.13;3.17;;;;;;;-146.27;65.41;46637.28;5070104;28;20027;-73
2024/01/08 02:57:51;;;;;;;4.85;3.10;;;;;;;-146.27;65.49;46647.25;5068169;28;20048;-73
2024/01/08 03:00:16;;;;;;;7.25;3.17;;;;;;;-146.27;65.92;46671.13;5070927;28;20114;-73
2024/01/08 03:02:42;;;;;;;5.32;3.22;;;;;;;-146.27;65.61;46643.25;5070118;28;20500;-72
2024/01/08 03:05:08;;;;;;;5.35;2.97;;;;;;;-146.27;65.30;46653.22;5063077;28;20480;-72
2024/01/08 03:07:33;;;;;;;4.30;2.88;;;;;;;-146.27;65.23;46647.25;5068736;28;20024;-73
2024/01/08 03:09:59;;;;;;;4.80;2.92;;;;;;;-146.27;65.07;46667.16;5070210;28;20496;-72
2024/01/08 03:12:25;;;;;;;5.60;3.25;;;;;;;-146.27;65.52;46619.38;5063469;28;20029;-73
2024/01/08 03:14:51;;;;;;;5.05;2.90;;;;;;;-146.27;66.43;46617.38;5064311;28;20644;-72
2024/01/08 03:17:17;;;;;;;4.88;2.67;;;;;;;-146.27;66.35;46631.31;5070730;28;20554;-72
2024/01/08 03:19:42;;;;;;;8.93;3.50;;;;;;;-146.27;66.29;46647.25;5072089;28;20028;-71
2024/01/08 03:22:07;;;;;;;7.57;3.33;;;;;;;-146.27;66.83;46655.22;5069857;28;20055;-72
2024/01/08 03:24:33;;;;;;;5.03;3.08;;;;;;;-146.27;66.89;46653.22;5070509;28;20032;-72
2024/01/08 03:26:59;;;;;;;6.78;3.20;;;;;;;-146.27;66.83;46633.31;5068896;28;20103;-74
2024/01/08 03:29:24;;;;;;;6.68;2.97;;;;;;;-146.27;66.87;46653.22;5080058;28;20111;-73
2024/01/08 03:31:49;;;;;;;6.45;3.20;;;;;;;-146.27;67.58;46671.13;5070287;28;20040;-73
2024/01/08 03:34:15;;;;;;;6.85;3.17;;;;;;;-146.27;67.37;46645.25;5070338;28;20028;-73
2024/01/08 03:36:48;;;;;;;6.65;3.30;;;;;;;-146.27;67.66;46655.22;5070226;28;20503;-73
2024/01/08 03:39:14;;;;;;;5.95;3.25;;;;;;;-146.27;67.28;46675.13;5068991;28;20048;-71
2024/01/08 03:41:40;;;;;;;8.48;3.80;;;;;;;-146.27;67.52;46665.16;5068973;28;20024;-74
2024/01/08 03:44:06;;;;;;;4.97;3.38;;;;;;;-146.27;67.58;46629.31;5071295;28;20193;-72
2024/01/08 03:46:31;;;;;;;5.57;2.85;;;;;;;-146.27;67.75;46675.13;5070829;28;20036;-72
2024/01/08 03:48:57;;;;;;;6.85;3.50;;;;;;;-146.27;67.88;46657.19;5071650;28;20032;-73
2024/01/08 03:51:22;;;;;;;10.80;3.67;;;;;;;-146.27;67.78;46657.19;5071574;28;20027;-72
2024/01/08 03:53:48;;;;;;;8.02;3.75;;;;;;;-146.27;67.45;46655.22;5068840;28;20028;-73
2024/01/08 03:56:13;;;;;;;6.72;3.28;;;;;;;-146.27;67.69;46665.16;5058016;28;20025;-73
2024/01/08 03:58:38;;;;;;;7.30;3.08;;;;;;;;;;5076990;28;20020;-73
2024/01/08 04:01:04;;;;;;;5.07;2.78;;;;;;;-146.27;67.47;46651.22;5072706;28;20075;-73
2024/01/08 04:03:29;;;;;;;5.20;3.28;;;;;;;-146.27;68.67;46665.16;5068022;28;20407;-73
2024/01/08 04:05:55;;;;;;;6.70;3.47;;;;;;;-146.27;68.15;46655.22;5068356;28;20423;-72
2024/01/08 04:08:20;;;;;;;6.95;3.20;;;;;;;-146.27;68.26;46667.16;5069437;28;20036;-73
2024/01/08 04:10:45;;;;;;;8.13;3.78;;;;;;;-146.27;68.88;46633.31;5069520;28;20024;-73
2024/01/08 04:13:11;;;;;;;7.95;3.80;;;;;;;-146.27;69.05;46657.19;5069061;28;20542;-72
2024/01/08 04:15:36;;;;;;;8.27;3.20;;;;;;;-146.27;68.80;46659.19;5067015;28;20024;-73
2024/01/08 04:18:02;;;;;;;7.13;4.05;;;;;;;-146.27;68.74;46659.19;5068260;28;20503;-73
2024/01/08 04:20:27;;;;;;;9.45;4.05;;;;;;;-146.27;68.61;46657.19;5068092;28;20499;-73
2024/01/08 04:22:53;;;;;;;6.13;3.55;;;;;;;-146.27;68.75;46639.28;5069784;28;20021;-73
2024/01/08 04:25:18;;;;;;;5.43;3.20;;;;;;;-146.27;68.77;46657.19;5068521;28;20032;-73
2024/01/08 04:27:43;;;;;;;6.32;3.75;;;;;;;-146.27;69.35;46647.25;5068759;28;20047;-73
2024/01/08 04:30:09;;;;;;;8.23;4.15;;;;;;;-146.27;69.04;46637.28;5061494;28;20500;-73
2024/01/08 04:32:35;;;;;;;5.10;3.58;;;;;;;-146.27;68.71;46623.34;5064659;28;20437;-72
2024/01/08 04:35:01;;;;;;;15.20;4.10;;;;;;;-146.27;69.76;46665.16;5069697;28;20122;-73
2024/01/08 04:37:27;;;;;;;6.95;3.92;;;;;;;-146.27;69.65;46627.34;5069210;28;20447;-73
2024/01/08 04:39:52;;;;;;;6.80;3.47;;;;;;;-146.27;69.46;46621.38;5069062;28;20071;-73
2024/01/08 04:42:18;;;;;;;7.28;3.58;;;;;;;-146.27;69.15;46611.41;5060221;28;20067;-73
2024/01/08 04:44:43;;;;;;;9.63;4.22;;;;;;;-146.27;69.46;46635.31;5057653;28;20017;-73
2024/01/08 04:47:09;;;;;;;7.97;4.18;;;;;;;-146.27;69.44;46623.34;5061475;28;20059;-73
2024/01/08 04:49:34;;;;;;;9.50;4.18;;;;;;;-146.27;69.33;46621.38;5068856;28;20048;-73
2024/01/08 04:52:00;;;;;;;7.47;3.33;;;;;;;-146.27;70.18;46615.41;5068196;28;20101;-73
2024/01/08 04:54:25;;;;;;;6.90;3.72;;;;;;;-146.27;69.79;46601.47;5069066;28;20052;-73
2024/01/08 04:56:51;;;;;;;6.97;4.75;;;;;;;-146.27;70.20;46609.41;5068598;28;20029;-74
2024/01/08 04:59:19;;;;;;;7.63;3.80;;;;;;;-146.27;70.09;46623.34;5066647;28;20322;-73
2024/01/08 05:01:45;;;;;;;7.93;4.15;;;;;;;-146.27;69.86;46611.41;5065398;28;20051;-74
2024/01/08 05:04:10;;;;;;;6.85;3.67;;;;;;;-146.27;70.87;46619.38;5064658;28;20016;-73
2024/01/08 05:06:35;;;;;;;8.32;4.13;;;;;;;-146.27;71.18;46595.47;5065941;28;20017;-73
2024/01/08 05:09:02;;;;;;;6.28;3.53;;;;;;;-146.27;70.92;46595.47;5059938;28;20016;-74
2024/01/08 05:11:27;;;;;;;6.38;3.53;;;;;;;-146.27;70.70;46595.47;5067996;28;20103;-75
2024/01/08 05:13:52;;;;;;;10.98;4.25;;;;;;;-146.27;70.95;46583.53;5068658;28;20480;-73
2024/01/08 05:16:18;;;;;;;6.97;3.72;;;;;;;-146.27;71.06;46579.56;5067980;28;20020;-73
2024/01/08 05:18:43;;;;;;;11.98;4.30;;;;;;;-146.27;71.06;46593.50;5071084;28;20077;-74
2024/01/08 05:21:13;;;;;;;6.70;3.83;;;;;;;-146.27;70.53;46589.50;5067806;28;20032;-73
2024/01/08 05:23:38;;;;;;;8.95;3.65;;;;;;;-146.27;71.47;46583.53;5069411;28;20047;-74
2024/01/08 05:26:03;;;;;;;8.45;3.65;;;;;;;-146.27;70.85;46583.53;5069804;28;20028;-74
2024/01/08 05:28:29;;;;;;;10.05;4.18;;;;;;;-146.27;71.80;46563.63;5069928;28;20027;-74
2024/01/08 05:30:54;;;;;;;6.45;3.97;;;;;;;-146.27;71.97;46591.50;5070875;28;20020;-74
2024/01/08 05:33:20;;;;;;;11.82;4.63;;;;;;;-146.27;71.31;46553.69;5080164;28;20024;-73
2024/01/08 05:35:46;;;;;;;7.53;4.10;;;;;;;-146.27;71.88;46565.63;5068476;28;20066;-74
2024/01/08 05:38:12;;;;;;;7.45;3.90;;;;;;;-146.27;71.92;46571.59;5066382;28;20033;-74
2024/01/08 05:40:38;;;;;;;6.53;3.55;;;;;;;-146.27;71.67;46541.72;5068040;28;20044;-75
2024/01/08 05:43:04;;;;;;;5.72;3.78;;;;;;;-146.27;72.00;46543.72;5085049;28;20027;-74
2024/01/08 05:45:29;;;;;;;6.40;4.03;;;;;;;-146.27;72.36;46543.72;5066299;28;20514;-74
2024/01/08 05:47:55;;;;;;;8.30;4.72;;;;;;;-146.27;72.86;46535.75;5068981;28;20493;-74
2024/01/08 05:50:27;;;;;;;7.20;4.38;;;;;;;-146.27;72.41;46497.94;5066115;28;20035;-75
2024/01/08 05:52:53;;;;;;;6.60;4.28;;;;;;;-146.27;72.50;46521.81;5073065;28;20452;-75
2024/01/08 05:55:18;;;;;;;8.82;4.65;;;;;;;-146.27;72.54;46495.94;5067130;28;20028;-74
2024/01/08 05:57:44;;;;;;;12.75;4.28;;;;;;;-146.27;72.47;46478.03;5068953;28;20025;-74
2024/01/08 06:00:10;;;;;;;8.60;4.95;;;;;;;-146.27;72.33;46454.13;5067763;28;20060;-74
2024/01/08 06:02:36;;;;;;;9.57;4.70;;;;;;;-146.27;72.74;46509.88;5069231;28;20068;-80
2024/01/08 06:05:02;;;;;;;11.23;4.93;;;;;;;-146.27;72.88;46497.94;5069447;28;20028;-74
2024/01/08 06:07:27;;;;;;;7.90;4.93;;;;;;;-146.27;73.64;46460.09;5069353;28;20077;-74
2024/01/08 06:09:52;;;;;;;7.63;4.40;;;;;;;-146.27;73.32;46438.22;5071866;28;20107;-74
2024/01/08 06:12:18;;;;;;;7.13;4.53;;;;;;;-146.27;72.76;46472.06;5070268;28;20039;-74
2024/01/08 06:14:43;;;;;;;9.48;5.00;;;;;;;-146.27;73.23;46444.19;5072263;28;20029;-75
2024/01/08 06:17:10;;;;;;;11.38;4.75;;;;;;;-146.27;73.78;46456.13;5072299;28;20024;-73
2024/01/08 06:19:36;;;;;;;9.50;5.38;;;;;;;-146.27;73.01;46436.22;5071744;28;20416;-73
2024/01/08 06:22:01;;;;;;;9.85;4.72;;;;;;;-146.27;73.62;46468.06;5066135;28;20032;-74
2024/01/08 06:24:26;;;;;;;8.30;4.95;;;;;;;-146.27;73.23;46438.22;5070974;28;20039;-75
2024/01/08 06:26:52;;;;;;;8.95;4.63;;;;;;;-146.27;72.78;46448.16;5072268;28;20028;-74
2024/01/08 06:29:17;;;;;;;10.23;5.65;;;;;;;-146.27;73.00;46440.19;5072373;28;20618;-74
2024/01/08 06:31:44;;;;;;;13.02;5.22;;;;;;;-146.27;73.56;46440.19;5072765;28;20052;-76
2024/01/08 06:34:09;;;;;;;10.10;5.15;;;;;;;-146.27;73.46;46432.25;5092179;28;20032;-73
2024/01/08 06:36:35;;;;;;;8.32;4.80;;;;;;;-146.27;73.99;46456.13;5084106;28;20033;-74
2024/01/08 06:39:01;;;;;;;9.23;5.95;;;;;;;-146.27;73.45;46426.28;5063774;28;20047;-74
2024/01/08 06:41:26;;;;;;;11.82;4.57;;;;;;;-146.27;73.40;46384.47;5065998;28;20017;-73
2024/01/08 06:43:52;;;;;;;8.85;4.63;;;;;;;-146.27;73.31;46442.19;5063808;28;20082;-75
2024/01/08 06:46:18;;;;;;;11.40;5.20;;;;;;;-146.27;73.25;46418.31;5068347;28;20051;-75
2024/01/08 06:48:43;;;;;;;11.00;5.63;;;;;;;-146.27;73.26;46424.28;5064571;28;20052;-75
2024/01/08 06:51:11;;;;;;;10.95;5.63;;;;;;;-146.27;73.12;46406.34;5078462;28;20020;-74
2024/01/08 06:53:36;;;;;;;10.52;5.45;;;;;;;-146.27;73.83;46392.44;5070596;28;20024;-75
2024/01/08 06:56:02;;;;;;;10.15;4.93;;;;;;;-146.27;73.71;46402.38;5077443;28;20024;-74
2024/01/08 06:58:27;;;;;;;12.05;5.45;;;;;;;-146.27;73.63;46406.34;5075725;28;20422;-74
2024/01/08 07:00:53;;;;;;;10.80;5.15;;;;;;;-146.27;73.21;46392.44;5069237;28;20056;-74
2024/01/08 07:03:18;;;;;;;8.63;5.38;;;;;;;-146.27;73.64;46444.19;5072518;28;20055;-75
2024/01/08 07:05:43;;;;;;;10.05;5.50;;;;;;;-146.27;73.95;46362.56;5062718;28;20029;-75
2024/01/08 07:08:09;;;;;;;8.43;4.70;;;;;;;-146.27;73.47;46392.44;5058821;28;20039;-75
2024/01/08 07:10:35;;;;;;;11.05;4.95;;;;;;;-146.27;73.97;46380.47;5069760;28;20031;-75
2024/01/08 07:13:01;;;;;;;11.18;5.40;;;;;;;-146.27;74.12;46376.50;5067100;28;20031;-75
2024/01/08 07:15:44;;;;;;;8.70;4.80;;;;;;;-146.27;74.16;46366.53;5066085;28;20036;-75
2024/01/08 07:18:10;;;;;;;12.43;5.90;;;;;;;-146.27;74.71;46374.50;5066975;28;20501;-75
2024/01/08 07:20:40;;;;;;;8.48;5.13;;;;;;;-146.27;74.27;46336.69;5066088;28;20021;-75
2024/01/08 07:23:08;;;;;;;10.68;4.60;;;;;;;-146.27;73.48;46348.63;5070837;28;20392;-74
2024/01/08 07:25:40;;;;;;;6.85;4.53;;;;;;;-146.27;73.04;46364.56;5072378;28;20043;-75
2024/01/08 07:28:07;;;;;;;7.05;4.40;;;;;;;-146.27;72.77;46382.47;5055643;28;20094;-74
2024/01/08 07:30:33;;;;;;;9.60;5.28;;;;;;;-146.27;72.46;46404.38;5071257;28;20434;-75
2024/01/08 07:32:59;;;;;;;9.25;4.78;;;;;;;-146.27;72.31;46374.50;5091227;28;20020;-75
2024/01/08 07:35:24;;;;;;;8.30;4.70;;;;;;;-146.27;71.75;46428.25;5066949;28;20067;-75
2024/01/08 07:37:56;;;;;;;7.53;4.20;;;;;;;-146.27;71.99;46424.28;5059325;28;20043;-75
2024/01/08 07:40:23;;;;;;;10.10;4.63;;;;;;;-146.27;71.10;46428.25;5063474;28;20043;-74
2024/01/08 07:42:48;;;;;;;9.32;4.40;;;;;;;-146.27;71.08;46418.31;5075459;28;20022;-74
2024/01/08 07:45:14;;;;;;;8.57;4.72;;;;;;;-146.27;71.80;46448.16;5070620;28;20443;-74
2024/01/08 07:47:39;;;;;;;10.73;4.88;;;;;;;-146.27;70.41;46446.19;5071434;28;20017;-74
2024/01/08 07:50:06;;;;;;;10.40;4.53;;;;;;;-146.27;70.68;46468.06;5066639;28;20126;-73
2024/01/08 07:52:31;;;;;;;8.25;4.63;;;;;;;-146.27;70.15;46472.06;5050138;28;20029;-74
2024/01/08 07:54:57;;;;;;;10.82;4.28;;;;;;;-146.27;69.90;46464.09;5052016;28;20069;-75
2024/01/08 07:57:22;;;;;;;9.15;4.00;;;;;;;-146.27;69.77;46491.97;5060359;28;20111;-75
2024/01/08 07:59:48;;;;;;;10.27;4.43;;;;;;;-146.27;70.05;46476.03;5067930;28;20024;-74
2024/01/08 08:02:14;;;;;;;8.50;4.25;;;;;;;-146.27;69.49;46478.03;5068724;28;20494;-74
2024/01/08 08:04:39;;;;;;;6.55;4.00;;;;;;;-146.27;69.96;46476.03;5083066;28;20027;-75
2024/01/08 08:07:06;;;;;;;8.43;4.78;;;;;;;-146.27;70.39;46472.06;5091465;28;20027;-76
2024/01/08 08:09:31;;;;;;;7.80;4.22;;;;;;;-146.27;69.76;46489.97;5091645;28;20031;-75
2024/01/08 08:11:56;;;;;;;7.00;3.78;;;;;;;-146.27;69.77;46519.84;5068666;28;20469;-75
2024/01/08 08:14:21;;;;;;;9.43;3.47;;;;;;;-146.27;70.67;46529.78;5071971;28;20032;-76
2024/01/08 08:16:47;;;;;;;10.43;4.38;;;;;;;-146.27;70.49;46486.00;5069582;28;20374;-76
2024/01/08 08:19:12;;;;;;;4.57;3.35;;;;;;;-146.27;70.26;46486.00;5054009;28;20545;-76
2024/01/08 08:21:38;;;;;;;12.35;4.07;;;;;;;-146.27;69.91;46495.94;5050489;28;20112;-76
2024/01/08 08:24:04;;;;;;;10.60;3.60;;;;;;;-146.27;70.41;46495.94;5049360;28;20028;-76
2024/01/08 08:26:30;;;;;;;10.13;4.30;;;;;;;-146.27;70.09;46555.66;5050733;28;20032;-76
2024/01/08 08:28:55;;;;;;;9.52;3.88;;;;;;;-146.27;69.96;46505.91;5050435;28;20024;-75
2024/01/08 08:31:20;;;;;;;7.85;3.50;;;;;;;-146.27;70.20;46535.75;5062605;28;20103;-75
2024/01/08 08:33:46;;;;;;;6.65;3.97;;;;;;;-146.27;70.40;46547.72;5069615;28;20025;-76
2024/01/08 08:36:11;;;;;;;8.55;3.65;;;;;;;-146.27;69.82;46539.75;5069776;28;20103;-75
2024/01/08 08:38:37;;;;;;;5.93;3.65;;;;;;;-146.27;70.06;46567.63;5054349;28;20025;-76
2024/01/08 08:41:03;;;;;;;7.18;3.70;;;;;;;-146.27;70.29;46563.63;5064644;28;20332;-76
2024/01/08 08:43:30;;;;;;;4.82;3.03;;;;;;;-146.27;69.94;46559.66;5070160;28;20083;-76
2024/01/08 08:45:56;;;;;;;4.97;3.28;;;;;;;-146.27;69.71;46611.41;5070349;28;20024;-76
2024/01/08 08:48:21;;;;;;;7.40;2.95;;;;;;;-146.27;70.05;46601.47;5056291;28;20555;-76
2024/01/08 08:50:46;;;;;;;4.75;3.25;;;;;;;-146.27;70.01;46599.47;5050405;28;20420;-75
2024/01/08 08:53:12;;;;;;;4.78;3.25;;;;;;;-146.27;69.60;46619.38;5050284;28;20329;-75
2024/01/08 08:55:37;;;;;;;5.05;3.28;;;;;;;-146.27;69.65;46659.19;5050451;28;20484;-76
2024/01/08 08:58:08;;;;;;;6.57;3.22;;;;;;;-146.27;69.44;46665.16;5053072;28;20025;-76
2024/01/08 09:00:34;;;;;;;8.13;3.10;;;;;;;-146.27;69.46;46671.13;5050346;28;20052;-76
2024/01/08 09:03:02;;;;;;;5.10;3.22;;;;;;;-146.27;68.56;46710.94;5050011;28;20397;-76
2024/01/08 09:05:28;;;;;;;5.03;2.70;;;;;;;-146.27;67.63;46701.00;5050031;28;20078;-75
2024/01/08 09:07:53;;;;;;;4.65;2.40;;;;;;;-146.27;66.42;46710.94;5058736;28;20382;-76
2024/01/08 09:10:19;;;;;;;4.07;2.75;;;;;;;-146.27;65.63;46746.78;5056920;28;20052;-76
2024/01/08 09:12:44;;;;;;;4.43;2.90;;;;;;;-146.27;65.09;46746.78;5063616;28;20021;-75
2024/01/08 09:15:09;;;;;;;3.70;2.58;;;;;;;-146.27;64.95;46756.75;5059828;28;20020;-75
2024/01/08 09:17:35;;;;;;;5.45;2.88;;;;;;;-146.27;65.40;46794.56;5067373;28;20481;-74
2024/01/08 09:20:01;;;;;;;3.63;2.60;;;;;;;-146.27;65.52;46776.66;5070331;28;20028;-74
2024/01/08 09:22:26;;;;;;;5.78;3.45;;;;;;;-146.27;64.57;46774.66;5070009;28;20105;-74
2024/01/08 09:24:51;;;;;;;4.00;2.72;;;;;;;-146.27;64.73;46796.56;5066616;28;20021;-73
2024/01/08 09:27:17;;;;;;;4.25;2.58;;;;;;;-146.27;64.67;46794.56;5050068;28;20480;-75
2024/01/08 09:29:42;;;;;;;4.78;2.63;;;;;;;-146.27;63.98;46804.53;5064039;28;20106;-75
2024/01/08 09:32:07;;;;;;;4.90;3.25;;;;;;;-146.27;64.34;46794.56;5068023;28;20414;-75
2024/01/08 09:34:33;;;;;;;8.75;3.25;;;;;;;-146.27;65.29;46770.69;5067529;28;20393;-74
2024/01/08 09:36:58;;;;;;;7.53;3.63;;;;;;;-146.27;64.57;46816.47;5048509;28;20468;-75
2024/01/08 09:39:23;;;;;;;4.93;3.10;;;;;;;-146.27;65.34;46820.44;5049814;28;20025;-75
2024/01/08 09:41:54;;;;;;;5.28;3.03;;;;;;;-146.27;64.15;46850.31;5051638;28;20025;-75
2024/01/08 09:44:20;;;;;;;5.93;2.40;;;;;;;-146.27;63.71;46822.44;5067817;28;20355;-76
2024/01/08 09:46:49;;;;;;;5.53;3.17;;;;;;;-146.27;63.89;46848.31;5054855;28;20029;-74
2024/01/08 09:49:16;;;;;;;6.82;2.97;;;;;;;-146.27;64.18;46828.41;5053783;28;20352;-75
2024/01/08 09:51:42;;;;;;;3.75;2.80;;;;;;;-146.27;64.54;46826.44;5064029;28;20020;-77
2024/01/08 09:54:08;;;;;;;4.88;3.05;;;;;;;-146.27;64.78;46848.31;5077420;28;20032;-77
2024/01/08 09:56:34;;;;;;;6.10;3.60;;;;;;;-146.27;65.37;46862.25;5061079;28;20021;-77
2024/01/08 09:58:59;;;;;;;3.97;2.80;;;;;;;-146.27;64.28;46824.44;5060920;28;20028;-74
2024/01/08 10:01:25;;;;;;;4.30;3.00;;;;;;;-146.27;64.22;46838.38;5073321;28;20496;-75
2024/01/08 10:03:52;;;;;;;4.68;2.78;;;;;;;-146.27;64.43;46838.38;5072473;28;20021;-76
2024/01/08 10:06:17;;;;;;;7.30;2.65;;;;;;;-146.27;65.44;46846.34;5070152;28;20051;-76
2024/01/08 10:08:42;;;;;;;6.00;2.50;;;;;;;-146.27;65.93;46836.38;5089131;28;20115;-77
2024/01/08 10:11:10;;;;;;;5.13;2.85;;;;;;;-146.27;64.93;46806.53;5093695;28;20074;-77
2024/01/08 10:13:36;;;;;;;6.45;3.17;;;;;;;-146.27;65.31;46820.44;5084074;28;20024;-77
2024/01/08 10:16:01;;;;;;;7.80;3.38;;;;;;;-146.27;64.40;46804.53;5061306;28;20075;-78
2024/01/08 10:18:28;;;;;;;8.48;3.17;;;;;;;-146.27;63.91;46806.53;5055703;28;20024;-77
2024/01/08 10:21:11;;;;;;;5.38;3.63;;;;;;;-146.27;65.01;46818.47;5077757;28;20024;-76
2024/01/08 10:23:41;;;;;;;6.75;3.40;;;;;;;-146.27;65.70;46814.47;5061438;28;20392;-76
2024/01/08 10:26:10;;;;;;;4.25;3.20;;;;;;;-146.27;65.93;46822.44;5074228;28;20412;-76
2024/01/08 10:28:37;;;;;;;7.85;3.92;;;;;;;-146.27;66.42;46798.56;5072273;28;20047;-78
2024/01/08 10:31:04;;;;;;;8.07;3.72;;;;;;;-146.27;65.68;46806.53;5073156;28;20496;-77
2024/01/08 10:33:29;;;;;;;5.75;3.50;;;;;;;-146.27;65.40;46790.59;5062410;28;20017;-76
2024/01/08 10:35:56;;;;;;;7.85;3.40;;;;;;;-146.27;66.06;46792.59;5079660;28;20391;-76
2024/01/08 10:38:21;;;;;;;7.05;3.50;;;;;;;-146.27;66.37;46818.47;5076104;28;20024;-77
2024/01/08 10:40:47;;;;;;;7.00;4.13;;;;;;;-146.27;66.46;46808.50;5072838;28;20170;-77
2024/01/08 10:43:15;;;;;;;12.35;3.85;;;;;;;-146.27;67.20;46786.59;5077681;28;20028;-76
2024/01/08 10:45:41;;;;;;;7.63;3.88;;;;;;;-146.27;67.14;46802.53;5073032;28;20151;-77
2024/01/08 10:48:17;;;;;;;6.10;4.22;;;;;;;-146.27;68.09;46818.47;5072648;28;20527;-76
2024/01/08 10:50:45;;;;;;;6.45;3.47;;;;;;;-146.27;67.26;46790.59;5072749;28;20036;-76
2024/01/08 10:53:25;;;;;;;4.78;3.53;;;;;;;-146.27;67.67;46798.56;5078417;28;20028;-76
2024/01/08 10:55:52;;;;;;;5.60;3.58;;;;;;;-146.27;66.62;46778.66;5081195;28;20455;-76
2024/01/08 10:58:29;;;;;;;5.95;4.05;;;;;;;-146.27;66.55;46790.59;5084901;28;20032;-76
2024/01/08 11:00:55;;;;;;;5.30;3.38;;;;;;;-146.27;66.44;46802.53;5053068;28;20041;-76
2024/01/08 11:03:21;;;;;;;8.73;4.43;;;;;;;-146.27;66.66;46806.53;5054674;28;20031;-77
2024/01/08 11:05:50;;;;;;;7.40;3.85;;;;;;;-146.27;66.15;46828.41;5057628;28;20059;-75
2024/01/08 11:08:17;;;;;;;7.22;3.90;;;;;;;-146.27;65.54;46820.44;5070093;28;20515;-76
2024/01/08 11:10:43;;;;;;;6.40;3.78;;;;;;;-146.27;66.15;46816.47;5066550;28;20357;-75